createdAt,value
2016-09-11T00:00:14.358Z,75.5
2016-09-11T00:00:35.136Z,75.4
2016-09-11T00:00:55.705Z,75.5
2016-09-11T00:01:16.665Z,75.4
2016-09-11T00:01:37.223Z,75.6
2016-09-11T00:01:57.763Z,75.5
2016-09-11T00:02:18.396Z,75.7
2016-09-11T00:02:38.955Z,75.4
2016-09-11T00:02:59.540Z,75.6
2016-09-11T00:03:20.100Z,75.5
2016-09-11T00:03:40.635Z,75
2016-09-11T00:04:01.354Z,75.5
2016-09-11T00:04:21.992Z,75
2016-09-11T00:04:42.629Z,75.7
2016-09-11T00:05:03.175Z,75.2
2016-09-11T00:05:23.747Z,75.2
2016-09-11T00:05:44.431Z,75.2
2016-09-11T00:06:05.294Z,75.2
2016-09-11T00:06:25.842Z,75.3
2016-09-11T00:06:46.407Z,75
2016-09-11T00:07:07.324Z,75
2016-09-11T00:07:27.902Z,75.2
2016-09-11T00:07:48.454Z,75
2016-09-11T00:08:09.413Z,75.1
2016-09-11T00:08:30.224Z,75.2
2016-09-11T00:08:50.805Z,75.1
2016-09-11T00:09:11.531Z,75.3
2016-09-11T00:09:32.091Z,75.1
2016-09-11T00:09:52.698Z,75.3
2016-09-11T00:10:13.256Z,75.1
2016-09-11T00:10:33.859Z,75
2016-09-11T00:10:54.458Z,75
2016-09-11T00:11:15.121Z,75
2016-09-11T00:11:35.731Z,75
2016-09-11T00:11:56.316Z,75
2016-09-11T00:12:17.028Z,75
2016-09-11T00:12:37.631Z,75
2016-09-11T00:12:58.411Z,75
2016-09-11T00:13:19.695Z,75
2016-09-11T00:13:40.270Z,75.1
2016-09-11T00:14:00.819Z,75.1
2016-09-11T00:14:21.377Z,75.2
2016-09-11T00:14:42.091Z,75.2
2016-09-11T00:15:03.069Z,75.1
2016-09-11T00:15:23.811Z,75.4
2016-09-11T00:15:44.424Z,75.1
2016-09-11T00:16:05.173Z,75.1
2016-09-11T00:16:26.031Z,75.1
2016-09-11T00:16:46.636Z,75.4
2016-09-11T00:17:07.860Z,75.2
2016-09-11T00:17:28.426Z,75.1
2016-09-11T00:17:49.101Z,75.2
2016-09-11T00:18:10.039Z,75.2
2016-09-11T00:18:30.711Z,75.2
2016-09-11T00:18:51.305Z,75
2016-09-11T00:19:12.126Z,75.2
2016-09-11T00:19:32.786Z,75.2
2016-09-11T00:19:53.726Z,75.1
2016-09-11T00:20:14.535Z,75.1
2016-09-11T00:20:35.145Z,75.1
2016-09-11T00:20:55.758Z,75.1
2016-09-11T00:21:16.331Z,75
2016-09-11T00:21:36.853Z,75
2016-09-11T00:21:57.429Z,75
2016-09-11T00:22:18.225Z,75
2016-09-11T00:22:38.789Z,75
2016-09-11T00:22:59.371Z,75
2016-09-11T00:23:20.069Z,75
2016-09-11T00:23:40.604Z,75
2016-09-11T00:24:01.207Z,75
2016-09-11T00:24:21.807Z,75.1
2016-09-11T00:24:42.457Z,75
2016-09-11T00:25:03.088Z,75
2016-09-11T00:25:23.729Z,75
2016-09-11T00:25:44.288Z,75
2016-09-11T00:26:04.850Z,75.1
2016-09-11T00:26:25.474Z,75
2016-09-11T00:26:46.168Z,75.4
2016-09-11T00:27:07.143Z,75.3
2016-09-11T00:27:27.751Z,75.1
2016-09-11T00:27:48.346Z,75.1
2016-09-11T00:28:09.229Z,75
2016-09-11T00:28:29.931Z,75.2
2016-09-11T00:28:50.503Z,75.2
2016-09-11T00:29:11.119Z,75.3
2016-09-11T00:29:31.735Z,75.3
2016-09-11T00:29:52.294Z,75.3
2016-09-11T00:30:14.319Z,75
2016-09-11T00:30:34.923Z,75.2
2016-09-11T00:30:55.483Z,75.2
2016-09-11T00:31:16.162Z,75.1
2016-09-11T00:31:37.091Z,75.2
2016-09-11T00:31:57.712Z,75.4
2016-09-11T00:32:18.584Z,75.4
2016-09-11T00:32:39.241Z,75.1
2016-09-11T00:32:59.862Z,75.7
2016-09-11T00:33:20.497Z,75.7
2016-09-11T00:33:41.069Z,75.5
2016-09-11T00:34:01.815Z,75.4
2016-09-11T00:34:22.568Z,75.4
2016-09-11T00:34:43.282Z,75.5
2016-09-11T00:35:03.881Z,75.6
2016-09-11T00:35:24.826Z,75.4
2016-09-11T00:35:46.107Z,75.2
2016-09-11T00:36:06.707Z,75.2
2016-09-11T00:36:27.254Z,75.1
2016-09-11T00:36:47.895Z,75.7
2016-09-11T00:37:08.535Z,75.2
2016-09-11T00:37:29.252Z,75
2016-09-11T00:37:49.847Z,75
2016-09-11T00:38:10.450Z,75.1
2016-09-11T00:38:31.119Z,75
2016-09-11T00:38:51.695Z,75.5
2016-09-11T00:39:12.446Z,75.2
2016-09-11T00:39:33.005Z,75.3
2016-09-11T00:39:53.634Z,75.2
2016-09-11T00:40:14.713Z,75.3
2016-09-11T00:40:35.284Z,75.7
2016-09-11T00:40:55.890Z,75
2016-09-11T00:41:16.480Z,75.3
2016-09-11T00:41:37.031Z,75.1
2016-09-11T00:41:57.677Z,75.2
2016-09-11T00:42:18.250Z,75.2
2016-09-11T00:42:38.800Z,75.4
2016-09-11T00:42:59.380Z,75.1
2016-09-11T00:43:19.962Z,75.2
2016-09-11T00:43:40.866Z,75.1
2016-09-11T00:44:01.533Z,75.2
2016-09-11T00:44:22.071Z,75.1
2016-09-11T00:44:42.667Z,75
2016-09-11T00:45:03.609Z,75.1
2016-09-11T00:45:24.208Z,75.4
2016-09-11T00:45:44.753Z,75.1
2016-09-11T00:46:05.306Z,75.1
2016-09-11T00:46:25.872Z,75.1
2016-09-11T00:46:46.504Z,75.3
2016-09-11T00:47:07.154Z,75.3
2016-09-11T00:47:27.745Z,75.3
2016-09-11T00:47:48.494Z,75.1
2016-09-11T00:48:09.345Z,75.4
2016-09-11T00:48:29.916Z,75.3
2016-09-11T00:48:50.468Z,75.2
2016-09-11T00:49:11.032Z,75.5
2016-09-11T00:49:31.644Z,75
2016-09-11T00:49:52.726Z,75.3
2016-09-11T00:50:13.823Z,75.1
2016-09-11T00:50:34.428Z,75.7
2016-09-11T00:50:54.994Z,75.2
2016-09-11T00:51:15.619Z,75.1
2016-09-11T00:51:36.189Z,75
2016-09-11T00:51:56.766Z,75.7
2016-09-11T00:52:17.367Z,75.7
2016-09-11T00:52:37.940Z,75.4
2016-09-11T00:52:58.531Z,75.4
2016-09-11T00:53:19.278Z,75
2016-09-11T00:53:39.829Z,75
2016-09-11T00:54:00.485Z,75.3
2016-09-11T00:54:21.115Z,75.2
2016-09-11T00:54:41.675Z,75
2016-09-11T00:55:02.727Z,74.9
2016-09-11T00:55:23.452Z,75.1
2016-09-11T00:55:43.991Z,75
2016-09-11T00:56:04.575Z,75.1
2016-09-11T00:56:25.129Z,75.3
2016-09-11T00:56:45.664Z,75.2
2016-09-11T00:57:06.212Z,75.1
2016-09-11T00:57:26.959Z,75.2
2016-09-11T00:57:47.562Z,75.1
2016-09-11T00:58:08.280Z,75.1
2016-09-11T00:58:28.846Z,75.2
2016-09-11T00:58:49.768Z,75
2016-09-11T00:59:10.315Z,75.5
2016-09-11T00:59:30.903Z,75.3
2016-09-11T00:59:51.581Z,75.9
2016-09-11T01:00:12.313Z,75
2016-09-11T01:00:33.062Z,75.5
2016-09-11T01:00:53.625Z,75.1
2016-09-11T01:01:14.334Z,75.2
2016-09-11T01:01:34.941Z,75
2016-09-11T01:01:55.493Z,75.2
2016-09-11T01:02:16.280Z,75.2
2016-09-11T01:02:36.945Z,75.5
2016-09-11T01:02:57.636Z,75.4
2016-09-11T01:03:18.244Z,75.6
2016-09-11T01:03:38.899Z,75.4
2016-09-11T01:03:59.516Z,75.7
2016-09-11T01:04:20.158Z,75.7
2016-09-11T01:04:40.740Z,75.5
2016-09-11T01:05:01.996Z,75.4
2016-09-11T01:05:22.870Z,75.6
2016-09-11T01:05:43.419Z,75.5
2016-09-11T01:06:04.047Z,75.3
2016-09-11T01:06:24.626Z,75.4
2016-09-11T01:06:45.197Z,75.6
2016-09-11T01:07:05.804Z,75.7
2016-09-11T01:07:26.448Z,75.5
2016-09-11T01:07:47.155Z,75
2016-09-11T01:08:07.754Z,75.5
2016-09-11T01:08:28.381Z,75
2016-09-11T01:08:48.976Z,75.2
2016-09-11T01:09:09.613Z,75.5
2016-09-11T01:09:30.201Z,75
2016-09-11T01:09:50.769Z,75
2016-09-11T01:10:11.611Z,75.1
2016-09-11T01:10:32.200Z,75.3
2016-09-11T01:10:52.923Z,75.1
2016-09-11T01:11:13.538Z,75.2
2016-09-11T01:11:34.145Z,75.1
2016-09-11T01:11:54.708Z,75.3
2016-09-11T01:12:15.287Z,75.2
2016-09-11T01:12:35.931Z,75.3
2016-09-11T01:12:56.655Z,74.7
2016-09-11T01:13:17.283Z,75.2
2016-09-11T01:13:37.941Z,75.1
2016-09-11T01:13:58.540Z,75.4
2016-09-11T01:14:19.144Z,75.4
2016-09-11T01:14:39.881Z,75.4
2016-09-11T01:15:00.442Z,75.4
2016-09-11T01:15:20.987Z,75.3
2016-09-11T01:15:41.747Z,75.2
2016-09-11T01:16:02.367Z,75.3
2016-09-11T01:16:22.944Z,75.2
2016-09-11T01:16:43.516Z,75.3
2016-09-11T01:17:04.104Z,75.6
2016-09-11T01:17:24.627Z,75.5
2016-09-11T01:17:45.223Z,75.5
2016-09-11T01:18:05.833Z,75.2
2016-09-11T01:18:26.386Z,75.4
2016-09-11T01:18:46.966Z,75.2
2016-09-11T01:19:07.653Z,75.4
2016-09-11T01:19:28.172Z,75.4
2016-09-11T01:19:48.717Z,75.4
2016-09-11T01:20:10.118Z,75.4
2016-09-11T01:20:30.693Z,75.2
2016-09-11T01:20:51.257Z,75.6
2016-09-11T01:21:11.897Z,75.4
2016-09-11T01:21:32.492Z,75.8
2016-09-11T01:21:53.042Z,75.9
2016-09-11T01:22:13.776Z,75.5
2016-09-11T01:22:34.637Z,76
2016-09-11T01:22:55.232Z,75.9
2016-09-11T01:23:15.800Z,75.6
2016-09-11T01:23:36.347Z,76.1
2016-09-11T01:23:57.006Z,76.1
2016-09-11T01:24:17.954Z,75.7
2016-09-11T01:24:38.761Z,76.1
2016-09-11T01:24:59.407Z,76.1
2016-09-11T01:25:20.382Z,75.6
2016-09-11T01:25:41.007Z,75.7
2016-09-11T01:26:01.556Z,75.6
2016-09-11T01:26:22.397Z,75.7
2016-09-11T01:26:42.977Z,76.1
2016-09-11T01:27:03.642Z,75.8
2016-09-11T01:27:24.331Z,76
2016-09-11T01:27:44.932Z,75.6
2016-09-11T01:28:05.466Z,76
2016-09-11T01:28:26.071Z,75.9
2016-09-11T01:28:46.691Z,75.6
2016-09-11T01:29:07.255Z,75.9
2016-09-11T01:29:27.984Z,76
2016-09-11T01:29:48.622Z,75.8
2016-09-11T01:30:09.493Z,76.1
2016-09-11T01:30:30.118Z,76.2
2016-09-11T01:30:50.714Z,75.9
2016-09-11T01:31:11.302Z,76.1
2016-09-11T01:31:31.916Z,75.6
2016-09-11T01:31:53.165Z,75.5
2016-09-11T01:32:14.263Z,75.9
2016-09-11T01:32:36.734Z,76.1
2016-09-11T01:32:57.623Z,75.6
2016-09-11T01:33:18.218Z,75.6
2016-09-11T01:33:38.816Z,75.9
2016-09-11T01:33:59.370Z,75.5
2016-09-11T01:34:19.995Z,75.8
2016-09-11T01:34:40.555Z,75.6
2016-09-11T01:35:01.098Z,75.6
2016-09-11T01:35:22.085Z,75.6
2016-09-11T01:35:42.651Z,76
2016-09-11T01:36:03.329Z,75.5
2016-09-11T01:36:23.898Z,75.7
2016-09-11T01:36:44.445Z,75.5
2016-09-11T01:37:05.081Z,75.8
2016-09-11T01:37:25.843Z,75.9
2016-09-11T01:37:46.412Z,76.3
2016-09-11T01:38:06.968Z,76.1
2016-09-11T01:38:27.516Z,76.3
2016-09-11T01:38:48.112Z,76.1
2016-09-11T01:39:08.694Z,76.1
2016-09-11T01:39:29.394Z,76.3
2016-09-11T01:39:49.953Z,75.9
2016-09-11T01:40:10.833Z,75.9
2016-09-11T01:40:31.406Z,76
2016-09-11T01:40:51.939Z,75.5
2016-09-11T01:41:12.545Z,76
2016-09-11T01:41:33.286Z,75.5
2016-09-11T01:41:53.829Z,75.5
2016-09-11T01:42:14.484Z,75.5
2016-09-11T01:42:35.051Z,75.5
2016-09-11T01:42:55.751Z,75.8
2016-09-11T01:43:16.415Z,75.5
2016-09-11T01:43:37.011Z,75.9
2016-09-11T01:43:57.625Z,75.8
2016-09-11T01:44:18.345Z,75.8
2016-09-11T01:44:38.899Z,75.7
2016-09-11T01:44:59.534Z,75.7
2016-09-11T01:45:20.164Z,75.8
2016-09-11T01:45:40.770Z,75.5
2016-09-11T01:46:01.386Z,75.5
2016-09-11T01:46:21.956Z,75.5
2016-09-11T01:46:42.552Z,75.7
2016-09-11T01:47:03.102Z,75.8
2016-09-11T01:47:23.815Z,75.8
2016-09-11T01:47:44.379Z,75.8
2016-09-11T01:48:04.995Z,75.6
2016-09-11T01:48:25.562Z,75.5
2016-09-11T01:48:46.150Z,75.7
2016-09-11T01:49:07.603Z,75.7
2016-09-11T01:49:28.235Z,75.6
2016-09-11T01:49:48.793Z,75.7
2016-09-11T01:50:10.255Z,75.9
2016-09-11T01:50:30.853Z,75.9
2016-09-11T01:50:51.370Z,75.9
2016-09-11T01:51:12.058Z,75.8
2016-09-11T01:51:32.762Z,75.5
2016-09-11T01:51:53.317Z,75.5
2016-09-11T01:52:13.946Z,75.5
2016-09-11T01:52:34.485Z,75.9
2016-09-11T01:52:55.051Z,75.9
2016-09-11T01:53:15.999Z,75.7
2016-09-11T01:53:36.579Z,75.5
2016-09-11T01:53:57.224Z,75.8
2016-09-11T01:54:17.798Z,75.8
2016-09-11T01:54:38.461Z,75.8
2016-09-11T01:54:59.022Z,75.8
2016-09-11T01:55:19.858Z,76.1
2016-09-11T01:55:40.425Z,75.9
2016-09-11T01:56:00.994Z,75.7
2016-09-11T01:56:21.627Z,76.1
2016-09-11T01:56:42.196Z,76.3
2016-09-11T01:57:03.176Z,76.4
2016-09-11T01:57:23.830Z,76.4
2016-09-11T01:57:44.511Z,76.5
2016-09-11T01:58:06.138Z,76.4
2016-09-11T01:58:27.077Z,76
2016-09-11T01:58:47.631Z,76.2
2016-09-11T01:59:08.290Z,76.1
2016-09-11T01:59:29.443Z,76
2016-09-11T01:59:50.240Z,76.3
2016-09-11T02:00:10.990Z,76.4
2016-09-11T02:00:31.763Z,76.1
2016-09-11T02:00:52.706Z,76
2016-09-11T02:01:13.432Z,76.5
2016-09-11T02:01:34.093Z,76.3
2016-09-11T02:01:54.662Z,76.3
2016-09-11T02:02:15.248Z,76.5
2016-09-11T02:02:35.822Z,76.2
2016-09-11T02:02:56.405Z,76.5
2016-09-11T02:03:17.050Z,76.1
2016-09-11T02:03:37.597Z,76.7
2016-09-11T02:03:58.194Z,76
2016-09-11T02:04:19.042Z,76.7
2016-09-11T02:04:39.691Z,76.6
2016-09-11T02:05:00.780Z,76.6
2016-09-11T02:05:21.550Z,76.5
2016-09-11T02:05:42.211Z,76.8
2016-09-11T02:06:02.803Z,76.5
2016-09-11T02:06:23.411Z,76.8
2016-09-11T02:06:44.098Z,77.3
2016-09-11T02:07:04.657Z,76.9
2016-09-11T02:07:25.284Z,77
2016-09-11T02:07:45.819Z,77.1
2016-09-11T02:08:06.535Z,77.1
2016-09-11T02:08:27.099Z,77.1
2016-09-11T02:08:47.758Z,77.3
2016-09-11T02:09:08.461Z,76.5
2016-09-11T02:09:29.523Z,76.6
2016-09-11T02:09:50.097Z,76.6
2016-09-11T02:10:11.454Z,77.3
2016-09-11T02:10:32.470Z,76.8
2016-09-11T02:10:53.027Z,77
2016-09-11T02:11:13.974Z,77.1
2016-09-11T02:11:34.581Z,76.8
2016-09-11T02:11:55.161Z,77.3
2016-09-11T02:12:15.814Z,77.2
2016-09-11T02:12:36.600Z,77.4
2016-09-11T02:12:57.226Z,77.1
2016-09-11T02:13:17.744Z,77.2
2016-09-11T02:13:38.287Z,77.2
2016-09-11T02:13:58.831Z,77
2016-09-11T02:14:19.472Z,77
2016-09-11T02:14:40.117Z,77.3
2016-09-11T02:15:00.700Z,76.9
2016-09-11T02:15:21.370Z,76.9
2016-09-11T02:15:41.914Z,77.1
2016-09-11T02:16:02.503Z,77.2
2016-09-11T02:16:23.157Z,76.7
2016-09-11T02:16:43.772Z,77.3
2016-09-11T02:17:04.352Z,77.3
2016-09-11T02:17:24.913Z,76.5
2016-09-11T02:17:45.492Z,77
2016-09-11T02:18:06.131Z,77.2
2016-09-11T02:18:26.690Z,77.1
2016-09-11T02:18:47.269Z,77.5
2016-09-11T02:19:07.853Z,77.1
2016-09-11T02:19:28.435Z,77.2
2016-09-11T02:19:49.026Z,77.1
2016-09-11T02:20:10.191Z,77.3
2016-09-11T02:20:30.848Z,77.1
2016-09-11T02:20:51.415Z,77.3
2016-09-11T02:21:12.190Z,77.4
2016-09-11T02:21:32.775Z,77.2
2016-09-11T02:21:53.321Z,77.1
2016-09-11T02:22:13.867Z,77.3
2016-09-11T02:22:34.478Z,77.4
2016-09-11T02:22:55.089Z,77.5
2016-09-11T02:23:15.848Z,77.5
2016-09-11T02:23:36.394Z,77.4
2016-09-11T02:23:57.055Z,77.4
2016-09-11T02:24:17.935Z,77.4
2016-09-11T02:24:38.586Z,77
2016-09-11T02:24:59.243Z,77.1
2016-09-11T02:25:20.023Z,77.3
2016-09-11T02:25:40.571Z,77.5
2016-09-11T02:26:01.127Z,77.3
2016-09-11T02:26:21.790Z,76.9
2016-09-11T02:26:42.341Z,77.3
2016-09-11T02:27:02.905Z,77
2016-09-11T02:27:23.573Z,77.3
2016-09-11T02:27:44.115Z,77.5
2016-09-11T02:28:04.684Z,77.1
2016-09-11T02:28:25.309Z,77.3
2016-09-11T02:28:46.005Z,77.2
2016-09-11T02:29:06.801Z,77
2016-09-11T02:29:27.366Z,77.3
2016-09-11T02:29:48.098Z,77.2
2016-09-11T02:30:08.977Z,77
2016-09-11T02:30:29.563Z,77.3
2016-09-11T02:30:50.330Z,77
2016-09-11T02:31:11.205Z,77.3
2016-09-11T02:31:31.912Z,77.1
2016-09-11T02:31:52.542Z,77.3
2016-09-11T02:32:13.265Z,77.1
2016-09-11T02:32:33.813Z,77.1
2016-09-11T02:32:54.412Z,77.1
2016-09-11T02:33:15.164Z,77.3
2016-09-11T02:33:35.713Z,77
2016-09-11T02:33:56.536Z,76.9
2016-09-11T02:34:17.498Z,77.2
2016-09-11T02:34:38.109Z,77
2016-09-11T02:34:58.670Z,77
2016-09-11T02:35:19.968Z,77
2016-09-11T02:35:40.508Z,77.3
2016-09-11T02:36:01.058Z,76.9
2016-09-11T02:36:21.724Z,77.2
2016-09-11T02:36:42.286Z,77
2016-09-11T02:37:03.098Z,77.3
2016-09-11T02:37:23.636Z,76.9
2016-09-11T02:37:44.199Z,76.9
2016-09-11T02:38:04.970Z,76.9
2016-09-11T02:38:25.732Z,76.8
2016-09-11T02:38:46.300Z,77.1
2016-09-11T02:39:06.908Z,77.1
2016-09-11T02:39:27.557Z,77.1
2016-09-11T02:39:48.135Z,76.9
2016-09-11T02:40:08.672Z,76.9
2016-09-11T02:40:29.276Z,77.3
2016-09-11T02:40:49.860Z,77.3
2016-09-11T02:41:10.448Z,77.1
2016-09-11T02:41:31.021Z,77.1
2016-09-11T02:41:51.633Z,77.3
2016-09-11T02:42:12.336Z,76.7
2016-09-11T02:42:32.960Z,77.4
2016-09-11T02:42:53.522Z,77
2016-09-11T02:43:14.120Z,76.7
2016-09-11T02:43:34.702Z,76.5
2016-09-11T02:43:55.296Z,76.5
2016-09-11T02:44:16.064Z,76.5
2016-09-11T02:44:36.668Z,76.4
2016-09-11T02:44:57.246Z,76.5
2016-09-11T02:45:18.418Z,76.3
2016-09-11T02:45:39.077Z,76.5
2016-09-11T02:45:59.697Z,76.5
2016-09-11T02:46:20.300Z,76.6
2016-09-11T02:46:40.886Z,76.7
2016-09-11T02:47:01.442Z,76.6
2016-09-11T02:47:22.097Z,76.5
2016-09-11T02:47:42.681Z,76.6
2016-09-11T02:48:03.222Z,76.8
2016-09-11T02:48:23.777Z,76.9
2016-09-11T02:48:44.413Z,76.6
2016-09-11T02:49:04.958Z,76.6
2016-09-11T02:49:25.516Z,76.7
2016-09-11T02:49:46.068Z,76.6
2016-09-11T02:50:06.610Z,76.4
2016-09-11T02:50:27.256Z,76.6
2016-09-11T02:50:47.853Z,76.7
2016-09-11T02:51:08.519Z,76.7
2016-09-11T02:51:29.107Z,76.7
2016-09-11T02:51:49.733Z,76.7
2016-09-11T02:52:10.294Z,76.7
2016-09-11T02:52:31.065Z,76.7
2016-09-11T02:52:51.669Z,76.7
2016-09-11T02:53:12.291Z,76.7
2016-09-11T02:53:32.862Z,76.1
2016-09-11T02:53:53.529Z,76.4
2016-09-11T02:54:14.230Z,76.2
2016-09-11T02:54:34.775Z,76
2016-09-11T02:54:55.340Z,76.2
2016-09-11T02:55:16.046Z,76.2
2016-09-11T02:55:36.603Z,76.2
2016-09-11T02:55:57.176Z,76
2016-09-11T02:56:17.787Z,76.4
2016-09-11T02:56:38.320Z,76.3
2016-09-11T02:56:58.943Z,76.1
2016-09-11T02:57:19.501Z,76.4
2016-09-11T02:57:40.078Z,76.4
2016-09-11T02:58:00.839Z,76.3
2016-09-11T02:58:21.394Z,76.4
2016-09-11T02:58:41.927Z,76.4
2016-09-11T02:59:02.487Z,76.4
2016-09-11T02:59:23.087Z,76.2
2016-09-11T02:59:43.700Z,76.3
2016-09-11T03:00:04.340Z,76.8
2016-09-11T03:00:24.994Z,76.4
2016-09-11T03:00:45.792Z,76.8
2016-09-11T03:01:06.376Z,76.8
2016-09-11T03:01:27.066Z,76
2016-09-11T03:01:47.630Z,76.1
2016-09-11T03:02:08.326Z,76.2
2016-09-11T03:02:29.048Z,76.1
2016-09-11T03:02:49.576Z,76.2
2016-09-11T03:03:10.168Z,76
2016-09-11T03:03:30.833Z,76.5
2016-09-11T03:03:51.392Z,76.8
2016-09-11T03:04:11.986Z,76.2
2016-09-11T03:04:32.606Z,76.2
2016-09-11T03:04:53.160Z,76.2
2016-09-11T03:05:13.719Z,76.4
2016-09-11T03:05:34.382Z,76.2
2016-09-11T03:05:54.983Z,76.2
2016-09-11T03:06:15.565Z,75.9
2016-09-11T03:06:36.114Z,76
2016-09-11T03:06:56.700Z,77
2016-09-11T03:07:17.300Z,76.9
2016-09-11T03:07:37.855Z,76.9
2016-09-11T03:07:58.391Z,76.6
2016-09-11T03:08:18.937Z,76.9
2016-09-11T03:08:39.584Z,76.8
2016-09-11T03:09:00.213Z,76.9
2016-09-11T03:09:20.829Z,76.7
2016-09-11T03:09:41.375Z,76.7
2016-09-11T03:10:02.202Z,76.8
2016-09-11T03:10:22.766Z,76.8
2016-09-11T03:10:43.354Z,75.9
2016-09-11T03:11:03.998Z,77
2016-09-11T03:11:24.587Z,76.4
2016-09-11T03:11:45.148Z,77.1
2016-09-11T03:12:05.768Z,76.3
2016-09-11T03:12:26.313Z,76
2016-09-11T03:12:46.865Z,76.4
2016-09-11T03:13:07.556Z,76.4
2016-09-11T03:13:28.132Z,76.6
2016-09-11T03:13:48.981Z,76.5
2016-09-11T03:14:09.798Z,76.5
2016-09-11T03:14:30.388Z,76.3
2016-09-11T03:14:51.000Z,76.1
2016-09-11T03:15:11.595Z,76.1
2016-09-11T03:15:32.222Z,76.4
2016-09-11T03:15:52.761Z,76.4
2016-09-11T03:16:13.422Z,76.4
2016-09-11T03:16:33.997Z,76.3
2016-09-11T03:16:54.569Z,76.1
2016-09-11T03:17:15.158Z,75.7
2016-09-11T03:17:35.730Z,75.8
2016-09-11T03:17:56.456Z,76
2016-09-11T03:18:17.177Z,75.6
2016-09-11T03:18:37.741Z,75.6
2016-09-11T03:18:58.284Z,75.7
2016-09-11T03:19:18.897Z,75.5
2016-09-11T03:19:39.494Z,75.7
2016-09-11T03:20:00.061Z,75.6
2016-09-11T03:20:20.724Z,76.2
2016-09-11T03:20:41.313Z,76
2016-09-11T03:21:01.888Z,75.8
2016-09-11T03:21:22.558Z,75.8
2016-09-11T03:21:43.087Z,75.7
2016-09-11T03:22:03.651Z,75.9
2016-09-11T03:22:24.593Z,75.7
2016-09-11T03:22:45.171Z,75.7
2016-09-11T03:23:06.344Z,75.9
2016-09-11T03:23:26.961Z,75.5
2016-09-11T03:23:47.514Z,75.7
2016-09-11T03:24:08.107Z,76
2016-09-11T03:24:28.675Z,75.9
2016-09-11T03:24:49.238Z,76
2016-09-11T03:25:10.226Z,75.9
2016-09-11T03:25:30.849Z,75.6
2016-09-11T03:25:51.424Z,75.7
2016-09-11T03:26:12.139Z,76.1
2016-09-11T03:26:32.808Z,75.7
2016-09-11T03:26:53.440Z,75.6
2016-09-11T03:27:13.998Z,75.7
2016-09-11T03:27:34.606Z,75.7
2016-09-11T03:27:55.270Z,76
2016-09-11T03:28:16.089Z,75.6
2016-09-11T03:28:36.779Z,75.5
2016-09-11T03:28:57.418Z,75.9
2016-09-11T03:29:18.254Z,75.6
2016-09-11T03:29:38.876Z,75.8
2016-09-11T03:29:59.489Z,75.5
2016-09-11T03:30:20.767Z,75.5
2016-09-11T03:30:41.371Z,75.6
2016-09-11T03:31:01.883Z,76.1
2016-09-11T03:31:22.481Z,76.1
2016-09-11T03:31:43.048Z,75.9
2016-09-11T03:32:03.659Z,75.9
2016-09-11T03:32:24.284Z,75.7
2016-09-11T03:32:44.845Z,76.1
2016-09-11T03:33:05.430Z,76.2
2016-09-11T03:33:25.977Z,76.3
2016-09-11T03:33:46.550Z,76.4
2016-09-11T03:34:07.206Z,76.3
2016-09-11T03:34:27.779Z,76.4
2016-09-11T03:34:48.374Z,76.2
2016-09-11T03:35:10.078Z,76.2
2016-09-11T03:35:30.720Z,76.3
2016-09-11T03:35:51.303Z,76.2
2016-09-11T03:36:11.899Z,76.3
2016-09-11T03:36:32.719Z,76.2
2016-09-11T03:36:53.325Z,76.4
2016-09-11T03:37:14.019Z,76.3
2016-09-11T03:37:35.835Z,76.4
2016-09-11T03:37:56.381Z,76.4
2016-09-11T03:38:16.957Z,76.4
2016-09-11T03:38:37.514Z,76.4
2016-09-11T03:38:58.073Z,76.3
2016-09-11T03:39:18.715Z,76.4
2016-09-11T03:39:39.297Z,76
2016-09-11T03:39:59.895Z,76.1
2016-09-11T03:40:21.586Z,75.8
2016-09-11T03:40:42.217Z,75.8
2016-09-11T03:41:02.777Z,75.7
2016-09-11T03:41:23.349Z,75.7
2016-09-11T03:41:43.911Z,75.7
2016-09-11T03:42:04.665Z,75.9
2016-09-11T03:42:25.255Z,75.9
2016-09-11T03:42:45.967Z,75.9
2016-09-11T03:43:06.506Z,75.9
2016-09-11T03:43:27.064Z,75.9
2016-09-11T03:43:47.621Z,75.9
2016-09-11T03:44:08.346Z,76.1
2016-09-11T03:44:28.949Z,75.6
2016-09-11T03:44:49.507Z,75.7
2016-09-11T03:45:10.222Z,76
2016-09-11T03:45:30.933Z,75.9
2016-09-11T03:45:51.654Z,75.9
2016-09-11T03:46:12.262Z,75.9
2016-09-11T03:46:32.786Z,75.6
2016-09-11T03:46:53.354Z,76
2016-09-11T03:47:13.993Z,75.6
2016-09-11T03:47:34.752Z,75.8
2016-09-11T03:47:55.337Z,75.8
2016-09-11T03:48:16.622Z,75.6
2016-09-11T03:48:37.244Z,75.5
2016-09-11T03:48:57.788Z,75.5
2016-09-11T03:49:18.379Z,75.7
2016-09-11T03:49:38.938Z,75.7
2016-09-11T03:49:59.554Z,76
2016-09-11T03:50:20.831Z,75.5
2016-09-11T03:50:41.380Z,75.7
2016-09-11T03:51:01.989Z,75.8
2016-09-11T03:51:22.674Z,75.7
2016-09-11T03:51:43.423Z,75.5
2016-09-11T03:52:04.109Z,75.7
2016-09-11T03:52:24.725Z,75.9
2016-09-11T03:52:45.284Z,75.9
2016-09-11T03:53:05.938Z,75.8
2016-09-11T03:53:26.488Z,76
2016-09-11T03:53:47.267Z,75.9
2016-09-11T03:54:08.165Z,75.8
2016-09-11T03:54:28.730Z,75.9
2016-09-11T03:54:49.320Z,75.9
2016-09-11T03:55:10.218Z,76
2016-09-11T03:55:30.782Z,75.7
2016-09-11T03:55:51.366Z,76.3
2016-09-11T03:56:11.964Z,75.9
2016-09-11T03:56:32.498Z,75.9
2016-09-11T03:56:53.050Z,75.9
2016-09-11T03:57:13.709Z,75.7
2016-09-11T03:57:34.330Z,75.9
2016-09-11T03:57:54.966Z,75.9
2016-09-11T03:58:15.515Z,75.9
2016-09-11T03:58:36.218Z,76.2
2016-09-11T03:58:56.872Z,76.2
2016-09-11T03:59:17.526Z,76.3
2016-09-11T03:59:38.087Z,76.4
2016-09-11T03:59:58.664Z,76.3
2016-09-11T04:00:19.428Z,76.4
2016-09-11T04:00:40.062Z,76
2016-09-11T04:01:00.764Z,76.4
2016-09-11T04:01:21.881Z,76
2016-09-11T04:01:42.459Z,76.4
2016-09-11T04:02:03.039Z,76.3
2016-09-11T04:02:23.668Z,76.3
2016-09-11T04:02:44.230Z,76.3
2016-09-11T04:03:04.781Z,76.2
2016-09-11T04:03:25.390Z,76.2
2016-09-11T04:03:45.935Z,76.3
2016-09-11T04:04:06.492Z,76.4
2016-09-11T04:04:27.195Z,76.3
2016-09-11T04:04:47.905Z,76.4
2016-09-11T04:05:08.797Z,76.3
2016-09-11T04:05:29.357Z,76.3
2016-09-11T04:05:49.912Z,76.4
2016-09-11T04:06:11.236Z,76.1
2016-09-11T04:06:31.841Z,76.1
2016-09-11T04:06:52.395Z,76.1
2016-09-11T04:07:13.508Z,76.1
2016-09-11T04:07:34.219Z,76.3
2016-09-11T04:07:54.814Z,76
2016-09-11T04:08:15.561Z,76
2016-09-11T04:08:36.222Z,76.3
2016-09-11T04:08:56.847Z,76.3
2016-09-11T04:09:17.586Z,76.1
2016-09-11T04:09:38.224Z,76.4
2016-09-11T04:09:58.780Z,76.4
2016-09-11T04:10:19.513Z,76.3
2016-09-11T04:10:40.137Z,76.4
2016-09-11T04:11:00.739Z,76.3
2016-09-11T04:11:21.367Z,76.4
2016-09-11T04:11:41.901Z,76.4
2016-09-11T04:12:02.494Z,76.2
2016-09-11T04:12:23.046Z,76.2
2016-09-11T04:12:43.900Z,76.2
2016-09-11T04:13:04.462Z,76.2
2016-09-11T04:13:25.145Z,76.2
2016-09-11T04:13:45.923Z,76.1
2016-09-11T04:14:06.706Z,76.2
2016-09-11T04:14:27.302Z,76.1
2016-09-11T04:14:47.845Z,76.2
2016-09-11T04:15:08.415Z,76.2
2016-09-11T04:15:28.986Z,76.4
2016-09-11T04:15:49.537Z,76.1
2016-09-11T04:16:10.174Z,76.2
2016-09-11T04:16:30.720Z,76.4
2016-09-11T04:16:51.274Z,76.1
2016-09-11T04:17:12.198Z,76.1
2016-09-11T04:17:32.791Z,76.2
2016-09-11T04:17:53.432Z,76.2
2016-09-11T04:18:14.191Z,76.2
2016-09-11T04:18:34.817Z,76.3
2016-09-11T04:18:55.372Z,76.1
2016-09-11T04:19:15.967Z,76.1
2016-09-11T04:19:36.595Z,76.4
2016-09-11T04:19:57.202Z,76.4
2016-09-11T04:20:18.518Z,76.2
2016-09-11T04:20:39.157Z,76.2
2016-09-11T04:20:59.811Z,76.3
2016-09-11T04:21:20.422Z,76.3
2016-09-11T04:21:40.983Z,76.1
2016-09-11T04:22:01.530Z,76.3
2016-09-11T04:22:22.086Z,76.3
2016-09-11T04:22:42.787Z,76.2
2016-09-11T04:23:03.409Z,76.2
2016-09-11T04:23:23.974Z,76.4
2016-09-11T04:23:44.923Z,76.4
2016-09-11T04:24:05.940Z,76.2
2016-09-11T04:24:26.507Z,76.3
2016-09-11T04:24:47.120Z,76.1
2016-09-11T04:25:20.717Z,76.2
2016-09-11T04:25:41.328Z,76.3
2016-09-11T04:26:01.948Z,76.5
2016-09-11T04:26:23.716Z,76.2
2016-09-11T04:26:44.262Z,76.1
2016-09-11T04:27:04.820Z,75.7
2016-09-11T04:27:26.523Z,75.7
2016-09-11T04:27:47.089Z,76.2
2016-09-11T04:28:07.639Z,76
2016-09-11T04:28:28.167Z,75.8
2016-09-11T04:28:48.702Z,75.5
2016-09-11T04:29:09.231Z,75.6
2016-09-11T04:29:29.759Z,75.6
2016-09-11T04:29:50.294Z,76.1
2016-09-11T04:30:10.840Z,76
2016-09-11T04:30:31.387Z,76
2016-09-11T04:30:51.921Z,75.8
2016-09-11T04:31:12.473Z,75.5
2016-09-11T04:31:33.044Z,75.7
2016-09-11T04:31:53.581Z,75.9
2016-09-11T04:32:14.131Z,75.5
2016-09-11T04:32:34.668Z,75.5
2016-09-11T04:32:55.220Z,75.8
2016-09-11T04:33:15.765Z,76
2016-09-11T04:33:36.296Z,75.7
2016-09-11T04:33:56.847Z,75.7
2016-09-11T04:34:17.413Z,76.1
2016-09-11T04:34:37.940Z,75.9
2016-09-11T04:34:58.485Z,75.9
2016-09-11T04:35:19.029Z,76.4
2016-09-11T04:35:39.592Z,76
2016-09-11T04:36:00.154Z,76.2
2016-09-11T04:36:20.692Z,76.3
2016-09-11T04:36:41.200Z,76.2
2016-09-11T04:37:01.752Z,76.3
2016-09-11T04:37:22.340Z,76.4
2016-09-11T04:37:42.889Z,76.1